createdAt,value
2019-05-23T00:01:38.672Z,97.20
2019-05-23T00:04:18.753Z,96.90
2019-05-23T00:06:48.518Z,96.80
2019-05-23T00:09:18.434Z,97.20
2019-05-23T00:11:57.747Z,96.90
2019-05-23T00:14:31.562Z,97.10
2019-05-23T00:17:02.072Z,97.30
2019-05-23T00:19:32.643Z,98.00
2019-05-23T00:22:01.632Z,97.80
2019-05-23T00:24:30.753Z,97.90
2019-05-23T00:26:59.834Z,97.50
2019-05-23T00:29:29.080Z,97.80
2019-05-23T00:31:59.670Z,97.50
2019-05-23T00:34:29.488Z,97.60
2019-05-23T00:36:59.830Z,98.10
2019-05-23T00:39:29.832Z,97.70
2019-05-23T00:41:58.706Z,98.00
2019-05-23T00:44:28.517Z,98.00
2019-05-23T00:46:57.412Z,98.20
2019-05-23T00:49:26.577Z,98.40
2019-05-23T00:51:55.767Z,98.40
2019-05-23T00:54:24.940Z,98.60
2019-05-23T00:56:54.824Z,98.50
2019-05-23T00:59:27.199Z,98.50
2019-05-23T01:01:54.346Z,98.40
2019-05-23T01:04:23.207Z,98.30
2019-05-23T01:06:52.324Z,98.50
2019-05-23T01:09:21.526Z,98.30
2019-05-23T01:11:50.742Z,98.50
2019-05-23T01:14:26.739Z,98.90
2019-05-23T01:16:56.149Z,98.50
2019-05-23T01:19:25.248Z,98.70
2019-05-23T01:22:01.343Z,98.60
2019-05-23T01:24:41.380Z,98.60
2019-05-23T01:27:10.366Z,98.40
2019-05-23T01:29:49.669Z,98.30
2019-05-23T01:32:22.328Z,98.40
2019-05-23T01:34:51.437Z,98.70
2019-05-23T01:37:21.973Z,98.40
2019-05-23T01:39:51.306Z,98.30
2019-05-23T01:42:20.591Z,98.60
2019-05-23T01:44:49.700Z,98.40
2019-05-23T01:47:20.088Z,98.40
2019-05-23T01:49:49.312Z,98.30
2019-05-23T01:52:19.219Z,98.50
2019-05-23T01:54:48.653Z,98.50
2019-05-23T01:57:17.866Z,98.40
2019-05-23T01:59:47.447Z,98.70
2019-05-23T02:02:18.157Z,98.70
2019-05-23T02:04:47.172Z,98.80
2019-05-23T02:07:16.571Z,98.70
2019-05-23T02:09:46.175Z,99.10
2019-05-23T02:12:15.688Z,99.20
2019-05-23T02:14:46.180Z,99.20
2019-05-23T02:17:15.193Z,99.00
2019-05-23T02:19:45.021Z,98.90
2019-05-23T02:22:14.346Z,99.30
2019-05-23T02:24:44.303Z,99.50
2019-05-23T02:27:13.361Z,99.40
2019-05-23T02:29:43.757Z,99.30
2019-05-23T02:32:13.373Z,99.30
2019-05-23T02:34:43.946Z,99.50
2019-05-23T02:37:20.241Z,99.50
2019-05-23T02:39:56.450Z,99.90
2019-05-23T02:42:30.460Z,99.60
2019-05-23T02:45:00.716Z,99.80
2019-05-23T02:47:36.789Z,99.60
2019-05-23T02:50:07.814Z,99.60
2019-05-23T02:52:43.518Z,99.60
2019-05-23T02:55:22.438Z,99.90
2019-05-23T02:57:53.162Z,99.80
2019-05-23T03:00:53.276Z,99.70
2019-05-23T03:03:12.057Z,99.70
2019-05-23T03:05:41.181Z,99.90
2019-05-23T03:08:11.879Z,99.90
2019-05-23T03:10:52.798Z,99.90
2019-05-23T03:13:25.132Z,99.90
2019-05-23T03:15:55.439Z,99.90
2019-05-23T03:18:25.493Z,99.90
2019-05-23T03:20:55.751Z,99.90
2019-05-23T03:23:24.773Z,99.90
2019-05-23T03:26:00.376Z,99.90
2019-05-23T03:28:30.960Z,99.90
2019-05-23T03:31:25.275Z,99.90
2019-05-23T03:33:32.420Z,99.90
2019-05-23T03:36:03.541Z,99.90
2019-05-23T03:38:32.774Z,99.90
2019-05-23T03:41:03.684Z,99.90
2019-05-23T03:43:32.570Z,99.90
2019-05-23T03:46:03.023Z,99.90
2019-05-23T03:48:31.855Z,99.90
2019-05-23T03:51:00.915Z,99.90
2019-05-23T03:53:31.575Z,99.90
2019-05-23T03:56:01.234Z,99.90
2019-05-23T03:58:31.651Z,99.90
2019-05-23T04:01:02.192Z,99.90
2019-05-23T04:03:31.045Z,99.90
2019-05-23T04:06:00.511Z,99.90
2019-05-23T04:08:29.931Z,99.90
2019-05-23T04:10:58.942Z,99.90
2019-05-23T04:13:27.972Z,99.90
2019-05-23T04:15:56.833Z,99.90
2019-05-23T04:18:26.183Z,99.90
2019-05-23T04:20:55.217Z,99.90
2019-05-23T04:23:24.195Z,99.90
2019-05-23T04:25:53.364Z,99.90
2019-05-23T04:28:22.191Z,99.90
2019-05-23T04:30:51.423Z,99.90
2019-05-23T04:33:20.986Z,99.90
2019-05-23T04:35:49.866Z,99.90
2019-05-23T04:38:18.847Z,99.90
2019-05-23T04:40:47.862Z,99.90
2019-05-23T04:43:16.968Z,99.90
2019-05-23T04:45:46.038Z,99.90
2019-05-23T04:48:14.926Z,99.90
2019-05-23T04:50:43.770Z,99.90
2019-05-23T04:53:13.528Z,99.90
2019-05-23T04:55:42.410Z,99.90
2019-05-23T04:58:11.216Z,99.90
2019-05-23T05:00:40.173Z,99.90
2019-05-23T05:03:09.105Z,99.90
2019-05-23T05:05:38.972Z,99.90
2019-05-23T05:08:07.777Z,99.90
2019-05-23T05:10:37.325Z,99.90
2019-05-23T05:13:06.287Z,99.90
2019-05-23T05:15:36.959Z,99.90
2019-05-23T05:18:06.786Z,99.90
2019-05-23T05:20:35.870Z,99.90
2019-05-23T05:23:05.268Z,99.90
2019-05-23T05:25:34.644Z,99.90
2019-05-23T05:28:03.871Z,99.90
2019-05-23T05:30:32.796Z,99.90
2019-05-23T05:33:01.870Z,99.90
2019-05-23T05:35:32.623Z,99.90
2019-05-23T05:38:01.417Z,99.90
2019-05-23T05:40:30.874Z,99.70
2019-05-23T05:43:00.110Z,99.80
2019-05-23T05:45:28.961Z,99.40
2019-05-23T05:47:57.836Z,99.20
2019-05-23T05:50:27.170Z,98.90
2019-05-23T05:52:56.145Z,98.70
2019-05-23T05:55:24.963Z,98.60
2019-05-23T05:57:53.849Z,98.20
2019-05-23T06:00:27.021Z,98.00
2019-05-23T06:03:04.232Z,97.90
2019-05-23T06:05:35.716Z,98.00
2019-05-23T06:08:06.623Z,98.10
2019-05-23T06:10:36.197Z,98.20
2019-05-23T06:13:06.242Z,98.30
2019-05-23T06:15:35.507Z,98.00
2019-05-23T06:18:05.385Z,98.00
2019-05-23T06:20:34.971Z,97.80
2019-05-23T06:23:03.951Z,97.80
2019-05-23T06:25:33.109Z,97.50
2019-05-23T06:28:02.364Z,97.50
2019-05-23T06:30:33.008Z,97.20
2019-05-23T06:33:19.951Z,97.50
2019-05-23T06:35:34.105Z,97.10
2019-05-23T06:38:03.469Z,97.00
2019-05-23T06:40:33.258Z,97.20
2019-05-23T06:43:02.303Z,97.10
2019-05-23T06:45:31.493Z,96.80
2019-05-23T06:48:00.698Z,96.70
2019-05-23T06:50:29.563Z,95.70
2019-05-23T06:52:58.417Z,95.30
2019-05-23T06:55:27.359Z,95.40
2019-05-23T06:57:56.248Z,95.20
2019-05-23T07:00:28.791Z,94.90
2019-05-23T07:02:57.782Z,95.10
2019-05-23T07:05:30.264Z,94.90
2019-05-23T07:07:59.226Z,94.70
2019-05-23T07:10:28.287Z,94.90
2019-05-23T07:12:57.180Z,94.90
2019-05-23T07:15:27.626Z,94.80
2019-05-23T07:17:57.531Z,94.50
2019-05-23T07:20:26.713Z,94.30
2019-05-23T07:22:55.754Z,93.90
2019-05-23T07:25:25.129Z,93.80
2019-05-23T07:27:56.313Z,93.80
2019-05-23T07:30:25.673Z,93.70
2019-05-23T07:32:54.596Z,93.60
2019-05-23T07:35:24.542Z,93.10
2019-05-23T07:37:53.515Z,93.10
2019-05-23T07:40:23.732Z,92.70
2019-05-23T07:42:52.704Z,92.80
2019-05-23T07:45:41.275Z,92.30
2019-05-23T07:48:10.551Z,90.90
2019-05-23T07:50:39.759Z,90.50
2019-05-23T07:53:09.980Z,90.90
2019-05-23T07:55:46.158Z,91.10
2019-05-23T07:58:15.512Z,91.20
2019-05-23T08:01:04.297Z,90.80
2019-05-23T08:03:33.240Z,90.60
2019-05-23T08:06:03.484Z,91.20
2019-05-23T08:08:32.991Z,91.20
2019-05-23T08:11:01.901Z,91.00
2019-05-23T08:13:31.324Z,90.70
2019-05-23T08:16:00.276Z,90.40
2019-05-23T08:18:29.697Z,90.10
2019-05-23T08:20:58.624Z,89.20
2019-05-23T08:23:27.973Z,90.10
2019-05-23T08:25:57.303Z,90.10
2019-05-23T08:28:26.413Z,90.40
2019-05-23T08:30:55.323Z,91.40
2019-05-23T08:33:24.939Z,90.40
2019-05-23T08:35:55.090Z,88.70
2019-05-23T08:38:24.548Z,88.90
2019-05-23T08:40:53.953Z,88.10
2019-05-23T08:43:22.846Z,89.20
2019-05-23T08:45:51.714Z,89.60
2019-05-23T08:48:20.731Z,86.20
2019-05-23T08:50:51.548Z,85.50
2019-05-23T08:53:20.545Z,85.00
2019-05-23T08:55:49.920Z,86.00
2019-05-23T08:58:18.854Z,85.80
2019-05-23T09:00:47.705Z,85.90
2019-05-23T09:03:17.154Z,86.80
2019-05-23T09:05:47.684Z,85.30
2019-05-23T09:08:18.320Z,84.70
2019-05-23T09:10:47.609Z,85.70
2019-05-23T09:13:16.657Z,84.50
2019-05-23T09:15:45.724Z,86.00
2019-05-23T09:18:14.760Z,85.10
2019-05-23T09:20:43.736Z,83.60
2019-05-23T09:23:12.702Z,82.10
2019-05-23T09:25:41.573Z,82.90
2019-05-23T09:28:11.787Z,83.00
2019-05-23T09:30:40.785Z,79.20
2019-05-23T09:33:09.873Z,79.20
2019-05-23T09:35:38.907Z,78.20
2019-05-23T09:38:07.870Z,74.90
2019-05-23T09:40:38.170Z,76.60
2019-05-23T09:43:07.369Z,72.70
2019-05-23T09:45:36.444Z,71.50
2019-05-23T09:48:05.478Z,73.10
2019-05-23T09:50:34.588Z,72.50
2019-05-23T09:53:03.691Z,71.70
2019-05-23T09:55:32.530Z,69.10
2019-05-23T09:58:01.406Z,68.70
2019-05-23T10:00:30.434Z,67.80
2019-05-23T10:03:01.013Z,67.70
2019-05-23T10:05:42.012Z,69.00
2019-05-23T10:08:00.469Z,68.90
2019-05-23T10:10:30.114Z,69.40
2019-05-23T10:12:59.001Z,64.40
2019-05-23T10:15:32.173Z,67.90
2019-05-23T10:18:01.226Z,68.30
2019-05-23T10:20:30.577Z,66.50
2019-05-23T10:22:59.531Z,66.00
2019-05-23T10:25:31.343Z,66.40
2019-05-23T10:28:00.195Z,65.10
2019-05-23T10:30:31.993Z,62.60
2019-05-23T10:33:00.864Z,65.30
2019-05-23T10:35:30.872Z,64.90
2019-05-23T10:37:59.908Z,64.50
2019-05-23T10:40:29.030Z,65.80
2019-05-23T10:42:58.021Z,65.50
2019-05-23T10:45:27.289Z,62.00
2019-05-23T10:47:56.820Z,64.30
2019-05-23T10:50:25.632Z,62.60
2019-05-23T10:52:54.438Z,60.30
2019-05-23T10:55:23.354Z,61.70
2019-05-23T10:57:52.148Z,61.50
2019-05-23T11:00:22.627Z,59.20
2019-05-23T11:02:51.642Z,59.20
2019-05-23T11:05:20.713Z,62.00
2019-05-23T11:07:49.718Z,60.20
2019-05-23T11:10:18.624Z,59.90
2019-05-23T11:12:47.673Z,62.30
2019-05-23T11:15:16.695Z,61.60
2019-05-23T11:17:45.623Z,60.30
2019-05-23T11:20:15.170Z,62.00
2019-05-23T11:22:44.355Z,62.00
2019-05-23T11:25:15.151Z,59.20
2019-05-23T11:27:45.152Z,58.60
2019-05-23T11:30:18.337Z,57.90
2019-05-23T11:32:47.404Z,56.10
2019-05-23T11:35:16.368Z,53.50
2019-05-23T11:37:45.251Z,54.10
2019-05-23T11:40:14.054Z,56.90
2019-05-23T11:42:43.286Z,56.90
2019-05-23T11:45:12.233Z,55.90
2019-05-23T11:47:41.571Z,54.50
2019-05-23T11:50:10.764Z,55.30
2019-05-23T11:52:40.419Z,54.70
2019-05-23T11:55:09.335Z,55.00
2019-05-23T11:57:38.542Z,54.10
2019-05-23T12:00:09.307Z,53.90
2019-05-23T12:02:46.664Z,51.80
2019-05-23T12:05:20.105Z,52.20
2019-05-23T12:07:49.121Z,53.00
2019-05-23T12:10:18.533Z,52.20
2019-05-23T12:12:47.645Z,52.40
2019-05-23T12:15:24.162Z,53.70
2019-05-23T12:17:53.213Z,52.90
2019-05-23T12:20:22.647Z,52.90
2019-05-23T12:22:53.280Z,49.70
2019-05-23T12:25:23.703Z,49.10
2019-05-23T12:27:52.735Z,49.10
2019-05-23T12:30:23.461Z,46.30
2019-05-23T12:32:52.405Z,48.10
2019-05-23T12:35:21.330Z,45.80
2019-05-23T12:37:50.552Z,45.80
2019-05-23T12:40:20.256Z,43.70
2019-05-23T12:42:49.078Z,42.90
2019-05-23T12:45:19.124Z,44.20
2019-05-23T12:47:55.405Z,44.40
2019-05-23T12:50:25.988Z,42.30
2019-05-23T12:52:54.964Z,42.70
2019-05-23T12:55:24.126Z,42.90
2019-05-23T12:57:52.992Z,44.30
2019-05-23T13:00:41.854Z,43.50
2019-05-23T13:03:14.033Z,44.40
2019-05-23T13:05:43.244Z,44.70
2019-05-23T13:08:12.475Z,45.40
2019-05-23T13:10:41.598Z,44.90
2019-05-23T13:13:10.677Z,45.70
2019-05-23T13:15:39.736Z,43.30
2019-05-23T13:18:08.712Z,43.30
2019-05-23T13:20:38.586Z,43.10
2019-05-23T13:23:08.268Z,42.90
2019-05-23T13:25:37.895Z,43.50
2019-05-23T13:28:06.761Z,43.20
2019-05-23T13:30:35.901Z,45.50
2019-05-23T13:33:04.907Z,45.80
2019-05-23T13:35:34.427Z,46.40
2019-05-23T13:38:03.458Z,45.80
2019-05-23T13:40:32.619Z,44.00
2019-05-23T13:43:06.408Z,45.70
2019-05-23T13:45:32.284Z,44.80
2019-05-23T13:48:01.072Z,44.20
2019-05-23T13:50:29.928Z,46.30
2019-05-23T13:53:00.039Z,42.30
2019-05-23T13:55:29.588Z,43.40
2019-05-23T13:57:58.404Z,46.10
2019-05-23T14:00:28.906Z,46.20
2019-05-23T14:02:57.728Z,45.80
2019-05-23T14:05:26.898Z,43.10
2019-05-23T14:08:10.580Z,45.90
2019-05-23T14:10:26.640Z,45.60
2019-05-23T14:12:55.845Z,44.70
2019-05-23T14:15:26.601Z,46.50
2019-05-23T14:17:55.883Z,46.10
2019-05-23T14:20:24.915Z,44.40
2019-05-23T14:22:55.529Z,45.20
2019-05-23T14:25:24.824Z,45.80
2019-05-23T14:28:01.669Z,46.80
2019-05-23T14:30:38.222Z,46.00
2019-05-23T14:33:27.650Z,46.50
2019-05-23T14:35:58.289Z,46.50
2019-05-23T14:38:31.252Z,47.70
2019-05-23T14:52:12.692Z,46.60
2019-05-23T14:54:43.205Z,47.10
2019-05-23T14:57:12.710Z,47.80
2019-05-23T14:59:42.489Z,46.90
2019-05-23T15:02:13.079Z,47.50
2019-05-23T15:04:41.927Z,45.30
2019-05-23T15:07:10.921Z,45.70
2019-05-23T15:09:40.902Z,46.00
2019-05-23T15:12:10.167Z,46.10
2019-05-23T15:14:39.442Z,48.30
2019-05-23T15:17:08.361Z,47.90
2019-05-23T15:19:44.913Z,47.60
2019-05-23T15:22:10.207Z,47.60
2019-05-23T15:24:39.181Z,44.60
2019-05-23T15:27:08.170Z,46.30
2019-05-23T15:29:36.984Z,47.50
2019-05-23T15:32:05.894Z,46.90
2019-05-23T15:34:35.570Z,47.60
2019-05-23T15:37:04.536Z,47.70
2019-05-23T15:39:33.863Z,47.30
2019-05-23T15:42:02.852Z,47.20
2019-05-23T15:44:32.013Z,46.80
2019-05-23T15:47:01.160Z,46.90
2019-05-23T15:49:30.375Z,46.90
2019-05-23T15:52:17.328Z,46.60
2019-05-23T15:54:56.958Z,48.00
2019-05-23T15:57:33.454Z,49.20
2019-05-23T16:00:13.139Z,47.40
2019-05-23T16:02:43.775Z,47.60
2019-05-23T16:05:14.316Z,49.40
2019-05-23T16:07:43.255Z,47.70
2019-05-23T16:10:14.008Z,48.30
2019-05-23T16:12:42.945Z,48.80
2019-05-23T16:15:11.786Z,48.50
2019-05-23T16:17:40.618Z,50.10
2019-05-23T16:20:09.798Z,50.00
2019-05-23T16:22:38.658Z,51.70
2019-05-23T16:25:07.654Z,50.20
2019-05-23T16:27:36.487Z,49.30
2019-05-23T16:30:08.004Z,50.00
2019-05-23T16:32:36.950Z,48.80
2019-05-23T16:35:06.327Z,48.80
2019-05-23T16:37:35.281Z,49.60
2019-05-23T16:40:06.391Z,49.40
2019-05-23T16:42:35.218Z,49.30
2019-05-23T16:45:08.084Z,50.40
2019-05-23T16:47:38.131Z,48.80
2019-05-23T16:50:07.842Z,48.90
2019-05-23T16:52:36.866Z,48.00
2019-05-23T16:55:07.762Z,47.30
2019-05-23T16:57:57.711Z,47.80
2019-05-23T17:00:37.156Z,49.20
2019-05-23T17:03:22.813Z,48.40
2019-05-23T17:06:08.699Z,50.50
2019-05-23T17:08:54.189Z,49.50
2019-05-23T17:11:33.593Z,51.20
2019-05-23T17:14:04.154Z,48.70
2019-05-23T17:16:34.656Z,50.30
2019-05-23T17:19:10.766Z,49.50
2019-05-23T17:21:41.258Z,49.40
2019-05-23T17:24:27.072Z,51.00
2019-05-23T17:26:57.797Z,50.60
2019-05-23T17:29:46.526Z,50.30
2019-05-23T17:32:19.848Z,52.00
2019-05-23T17:34:48.744Z,51.60
2019-05-23T17:37:19.411Z,54.20
2019-05-23T17:39:49.014Z,51.30
2019-05-23T17:42:17.877Z,49.50
2019-05-23T17:44:46.778Z,51.00
2019-05-23T17:47:15.659Z,49.40
2019-05-23T17:49:45.064Z,52.60
2019-05-23T17:52:14.882Z,50.90
2019-05-23T17:54:44.034Z,51.90
2019-05-23T17:57:13.410Z,50.30
2019-05-23T17:59:57.570Z,50.90
2019-05-23T18:02:27.269Z,50.30
2019-05-23T18:04:56.165Z,51.80
2019-05-23T18:07:25.795Z,49.70
2019-05-23T18:09:55.525Z,50.90
2019-05-23T18:12:24.636Z,51.80
2019-05-23T18:14:53.643Z,53.30
2019-05-23T18:17:22.532Z,53.50
2019-05-23T18:19:51.444Z,52.30
2019-05-23T18:22:21.316Z,53.90
2019-05-23T18:24:50.599Z,55.20
2019-05-23T18:27:19.620Z,54.90
2019-05-23T18:29:48.610Z,57.10
2019-05-23T18:32:19.192Z,57.50
2019-05-23T18:34:48.347Z,58.40
2019-05-23T18:37:17.628Z,57.50
2019-05-23T18:39:46.579Z,58.40
2019-05-23T18:42:15.675Z,59.20
2019-05-23T18:44:45.029Z,59.90
2019-05-23T18:47:24.493Z,61.70
2019-05-23T18:49:53.488Z,62.20
2019-05-23T18:52:22.455Z,62.90
2019-05-23T18:54:51.475Z,63.40
2019-05-23T18:57:23.836Z,64.90
2019-05-23T19:00:08.233Z,65.70
2019-05-23T19:02:37.267Z,66.20
2019-05-23T19:05:08.673Z,66.00
2019-05-23T19:07:39.271Z,65.10
2019-05-23T19:10:09.135Z,65.70
2019-05-23T19:12:38.093Z,68.30
2019-05-23T19:15:07.484Z,68.30
2019-05-23T19:17:36.968Z,70.50
2019-05-23T19:20:09.410Z,71.60
2019-05-23T19:22:38.996Z,71.10
2019-05-23T19:25:09.653Z,71.60
2019-05-23T19:27:42.231Z,73.80
2019-05-23T19:30:11.894Z,72.80
2019-05-23T19:32:41.266Z,73.50
2019-05-23T19:35:10.663Z,71.20
2019-05-23T19:37:40.024Z,71.90
2019-05-23T19:40:09.395Z,71.90
2019-05-23T19:42:38.417Z,73.50
2019-05-23T19:45:07.914Z,73.30
2019-05-23T19:47:36.848Z,72.90
2019-05-23T19:50:08.680Z,72.70
2019-05-23T19:52:37.878Z,74.20
2019-05-23T19:55:07.847Z,74.00
2019-05-23T19:57:38.521Z,73.50
2019-05-23T20:00:25.460Z,71.10
2019-05-23T20:02:59.221Z,72.20
2019-05-23T20:05:35.255Z,73.00
2019-05-23T20:08:04.941Z,75.00
2019-05-23T20:10:34.360Z,76.30
2019-05-23T20:13:03.271Z,76.50
2019-05-23T20:15:33.297Z,77.80
2019-05-23T20:18:02.255Z,79.80
2019-05-23T20:20:33.136Z,79.80
2019-05-23T20:23:02.192Z,80.20
2019-05-23T20:25:31.503Z,82.40
2019-05-23T20:28:00.553Z,82.80
2019-05-23T20:30:50.517Z,83.50
2019-05-23T20:33:19.506Z,84.00
2019-05-23T20:35:48.851Z,84.40
2019-05-23T20:38:17.736Z,84.30
2019-05-23T20:40:47.021Z,83.50
2019-05-23T20:43:15.876Z,84.90
2019-05-23T20:45:44.733Z,85.20
2019-05-23T20:48:13.614Z,86.70
2019-05-23T20:50:42.697Z,86.30
2019-05-23T20:53:11.588Z,86.70
2019-05-23T20:55:40.761Z,86.90
2019-05-23T20:58:09.804Z,86.90
2019-05-23T21:00:49.140Z,88.30
2019-05-23T21:03:19.499Z,89.00
2019-05-23T21:05:48.413Z,88.50
2019-05-23T21:08:17.351Z,88.50
2019-05-23T21:10:47.419Z,87.90
2019-05-23T21:13:16.518Z,88.90
2019-05-23T21:15:50.015Z,89.60
2019-05-23T21:18:19.006Z,89.70
2019-05-23T21:20:47.976Z,90.10
2019-05-23T21:23:16.814Z,90.70
2019-05-23T21:25:47.523Z,90.00
2019-05-23T21:28:16.497Z,90.50
2019-05-23T21:31:23.003Z,90.50
2019-05-23T21:33:51.821Z,90.00
2019-05-23T21:36:20.844Z,88.30
2019-05-23T21:38:49.703Z,89.10
2019-05-23T21:41:18.816Z,90.20
2019-05-23T21:43:48.290Z,90.10
2019-05-23T21:46:17.219Z,90.00
2019-05-23T21:48:46.034Z,90.50
2019-05-23T21:51:14.865Z,89.80
2019-05-23T21:53:43.741Z,90.30
2019-05-23T21:56:12.735Z,91.00
2019-05-23T21:58:41.921Z,91.00
2019-05-23T22:01:13.132Z,91.10
2019-05-23T22:03:49.625Z,91.10
2019-05-23T22:06:32.217Z,91.50
2019-05-23T22:09:02.191Z,91.50
2019-05-23T22:11:31.172Z,91.10
2019-05-23T22:14:00.195Z,91.00
2019-05-23T22:16:29.300Z,91.30
2019-05-23T22:18:58.183Z,91.30
2019-05-23T22:21:27.202Z,91.80
2019-05-23T22:23:56.276Z,92.20
2019-05-23T22:26:25.208Z,92.40
2019-05-23T22:28:54.418Z,92.00
2019-05-23T22:34:07.785Z,92.00
2019-05-23T22:36:36.812Z,92.30
2019-05-23T22:39:08.670Z,92.10
2019-05-23T22:41:37.736Z,92.00
2019-05-23T22:44:09.118Z,92.00
2019-05-23T22:46:38.502Z,92.30
2019-05-23T22:49:07.470Z,92.50
2019-05-23T22:51:36.485Z,92.70
2019-05-23T22:54:05.636Z,92.40
2019-05-23T22:56:34.533Z,93.10
2019-05-23T22:59:06.560Z,92.90
2019-05-23T23:01:35.803Z,92.90
2019-05-23T23:04:04.691Z,93.20
2019-05-23T23:06:33.838Z,93.30
2019-05-23T23:09:02.854Z,93.50
2019-05-23T23:11:31.710Z,93.30
2019-05-23T23:14:00.569Z,94.10
2019-05-23T23:16:29.487Z,93.50
2019-05-23T23:18:58.516Z,93.80
2019-05-23T23:21:27.381Z,94.00
2019-05-23T23:23:56.294Z,94.10
2019-05-23T23:26:25.135Z,93.80
2019-05-23T23:28:54.140Z,94.00
2019-05-23T23:31:23.093Z,94.10
2019-05-23T23:34:09.012Z,94.10
2019-05-23T23:36:38.117Z,94.60
2019-05-23T23:39:07.024Z,94.50
2019-05-23T23:41:36.218Z,94.50
2019-05-23T23:44:05.299Z,94.40
2019-05-23T23:46:52.307Z,94.60
2019-05-23T23:49:39.106Z,94.90
2019-05-23T23:52:25.813Z,95.00
2019-05-23T23:55:12.616Z,94.80
2019-05-23T23:57:58.819Z,95.30
